createdAt,value
2022-10-15T00:00:49.605Z,10.52
2022-10-15T00:03:16.929Z,6.90
2022-10-15T00:05:43.546Z,6.82
2022-10-15T00:08:11.806Z,6.28
2022-10-15T00:10:39.123Z,7.18
2022-10-15T00:13:06.386Z,7.63
2022-10-15T00:15:35.517Z,7.88
2022-10-15T00:18:02.118Z,6.43
2022-10-15T00:20:28.525Z,7.65
2022-10-15T00:22:55.036Z,7.18
2022-10-15T00:25:21.452Z,8.35
2022-10-15T00:27:47.864Z,9.05
2022-10-15T00:30:14.365Z,8.85
2022-10-15T00:32:40.764Z,9.70
2022-10-15T00:35:07.803Z,10.52
2022-10-15T00:37:34.261Z,14.40
2022-10-15T00:42:27.520Z,13.40
2022-10-15T00:44:56.968Z,12.90
2022-10-15T00:47:33.852Z,13.65
2022-10-15T00:50:04.975Z,12.57
2022-10-15T00:52:57.379Z,14.45
2022-10-15T00:55:29.617Z,13.43
2022-10-15T00:57:59.059Z,12.75
2022-10-15T01:00:25.566Z,19.65
2022-10-15T01:02:52.072Z,11.35
2022-10-15T01:05:19.113Z,15.73
2022-10-15T01:07:45.661Z,15.20
2022-10-15T01:10:13.593Z,14.27
2022-10-15T01:12:56.831Z,13.63
2022-10-15T01:15:29.370Z,15.32
2022-10-15T01:17:58.726Z,14.15
2022-10-15T01:21:12.258Z,15.15
2022-10-15T01:24:30.514Z,14.43
2022-10-15T01:27:05.439Z,13.05
2022-10-15T01:29:34.724Z,12.75
2022-10-15T01:32:17.462Z,13.35
2022-10-15T01:34:55.055Z,13.75
2022-10-15T01:37:36.678Z,18.05
2022-10-15T01:40:10.777Z,12.65
2022-10-15T01:42:47.224Z,13.90
2022-10-15T01:45:20.107Z,12.68
2022-10-15T01:47:51.561Z,15.52
2022-10-15T01:50:22.626Z,9.65
2022-10-15T01:52:51.694Z,11.43
2022-10-15T01:55:21.300Z,12.57
2022-10-15T01:57:49.122Z,12.30
2022-10-15T02:00:16.052Z,11.80
2022-10-15T02:02:42.976Z,10.38
2022-10-15T02:05:16.169Z,11.30
2022-10-15T02:07:58.794Z,13.10
2022-10-15T02:10:35.164Z,11.77
2022-10-15T02:13:13.099Z,8.95
2022-10-15T02:15:51.640Z,8.75
2022-10-15T02:18:30.292Z,9.55
2022-10-15T02:21:06.779Z,10.45
2022-10-15T02:23:36.527Z,12.85
2022-10-15T02:26:06.077Z,10.70
2022-10-15T02:28:35.297Z,10.02
2022-10-15T02:31:03.024Z,10.80
2022-10-15T02:33:31.959Z,9.43
2022-10-15T02:36:00.121Z,9.85
2022-10-15T02:38:29.959Z,8.45
2022-10-15T02:40:56.383Z,9.57
2022-10-15T02:43:22.970Z,9.88
2022-10-15T02:45:49.756Z,7.88
2022-10-15T02:48:16.904Z,7.47
2022-10-15T02:50:43.378Z,8.73
2022-10-15T02:53:10.940Z,10.15
2022-10-15T02:55:37.407Z,7.65
2022-10-15T02:58:04.777Z,7.90
2022-10-15T03:00:31.470Z,7.22
2022-10-15T03:02:57.990Z,8.90
2022-10-15T03:05:24.640Z,5.95
2022-10-15T03:07:51.118Z,6.15
2022-10-15T03:10:17.667Z,7.45
2022-10-15T03:12:44.254Z,6.45
2022-10-15T03:15:10.991Z,7.47
2022-10-15T03:17:37.419Z,6.70
2022-10-15T03:20:04.920Z,6.07
2022-10-15T03:22:31.305Z,6.65
2022-10-15T03:24:57.893Z,8.65
2022-10-15T03:27:25.353Z,8.95
2022-10-15T03:29:51.998Z,8.38
2022-10-15T03:32:18.427Z,7.63
2022-10-15T03:34:44.975Z,6.50
2022-10-15T03:37:11.636Z,8.20
2022-10-15T03:39:38.256Z,10.07
2022-10-15T03:42:04.775Z,9.93
2022-10-15T03:44:31.417Z,8.55
2022-10-15T03:46:57.784Z,7.80
2022-10-15T03:49:25.423Z,8.57
2022-10-15T03:51:51.884Z,8.20
2022-10-15T03:54:18.430Z,6.13
2022-10-15T03:56:44.806Z,7.20
2022-10-15T03:59:11.368Z,8.40
2022-10-15T04:01:38.052Z,6.85
2022-10-15T04:04:04.626Z,8.77
2022-10-15T04:06:34.117Z,7.10
2022-10-15T04:09:00.820Z,9.48
2022-10-15T04:11:27.322Z,8.20
2022-10-15T04:13:53.684Z,9.85
2022-10-15T04:16:20.150Z,7.30
2022-10-15T04:18:46.563Z,9.20
2022-10-15T04:21:13.160Z,8.20
2022-10-15T04:23:39.672Z,7.47
2022-10-15T04:26:06.420Z,6.65
2022-10-15T04:28:33.653Z,7.00
2022-10-15T04:31:01.284Z,7.70
2022-10-15T04:33:28.341Z,8.10
2022-10-15T04:36:06.247Z,8.45
2022-10-15T04:38:34.368Z,6.05
2022-10-15T04:41:10.027Z,13.13
2022-10-15T04:43:37.457Z,6.70
2022-10-15T04:46:05.595Z,8.18
2022-10-15T04:48:37.628Z,6.65
2022-10-15T04:51:09.786Z,16.17
2022-10-15T04:53:36.414Z,7.30
2022-10-15T04:56:10.511Z,6.32
2022-10-15T04:58:37.108Z,6.83
2022-10-15T05:01:06.105Z,8.20
2022-10-15T05:03:36.454Z,8.90
2022-10-15T05:06:18.281Z,8.80
2022-10-15T05:08:45.515Z,8.25
2022-10-15T05:11:14.793Z,7.85
2022-10-15T05:13:43.106Z,11.75
2022-10-15T05:16:20.985Z,7.63
2022-10-15T05:18:50.501Z,10.77
2022-10-15T05:21:18.297Z,9.73
2022-10-15T05:23:45.527Z,10.90
2022-10-15T05:26:14.273Z,9.90
2022-10-15T05:28:41.015Z,9.05
2022-10-15T05:31:11.835Z,7.07
2022-10-15T05:33:41.584Z,7.15
2022-10-15T05:36:18.700Z,7.32
2022-10-15T05:39:00.103Z,9.63
2022-10-15T05:41:27.985Z,8.77
2022-10-15T05:43:57.193Z,10.55
2022-10-15T05:46:24.269Z,9.70
2022-10-15T05:48:52.260Z,8.02
2022-10-15T05:51:18.925Z,9.93
2022-10-15T05:53:46.369Z,7.95
2022-10-15T05:56:14.191Z,7.75
2022-10-15T05:58:41.731Z,7.55
2022-10-15T06:01:11.301Z,7.95
2022-10-15T06:03:38.402Z,8.60
2022-10-15T06:06:05.591Z,9.63
2022-10-15T06:08:32.789Z,6.85
2022-10-15T06:11:09.273Z,12.35
2022-10-15T06:13:38.444Z,8.95
2022-10-15T06:16:05.256Z,9.45
2022-10-15T06:18:32.409Z,8.57
2022-10-15T06:20:59.178Z,7.57
2022-10-15T06:23:25.639Z,6.93
2022-10-15T06:25:52.379Z,7.88
2022-10-15T06:28:18.899Z,8.43
2022-10-15T06:30:45.340Z,9.65
2022-10-15T06:35:43.616Z,8.02
2022-10-15T06:38:10.174Z,7.05
2022-10-15T06:40:37.756Z,9.73
2022-10-15T06:43:09.650Z,7.95
2022-10-15T06:45:42.386Z,6.60
2022-10-15T06:48:09.056Z,8.93
2022-10-15T06:50:37.046Z,7.25
2022-10-15T06:53:04.181Z,7.53
2022-10-15T06:55:30.590Z,8.48
2022-10-15T06:57:57.454Z,7.82
2022-10-15T07:00:25.343Z,6.53
2022-10-15T07:02:52.743Z,8.13
2022-10-15T07:05:19.776Z,9.98
2022-10-15T07:07:56.487Z,7.47
2022-10-15T07:10:24.343Z,6.63
2022-10-15T07:12:51.029Z,6.05
2022-10-15T07:15:19.111Z,7.90
2022-10-15T07:18:01.162Z,7.35
2022-10-15T07:20:31.851Z,6.38
2022-10-15T07:23:00.459Z,6.22
2022-10-15T07:25:27.345Z,5.57
2022-10-15T07:27:55.249Z,6.35
2022-10-15T07:30:22.847Z,5.75
2022-10-15T07:32:50.278Z,5.80
2022-10-15T07:35:16.954Z,5.50
2022-10-15T07:37:43.630Z,6.13
2022-10-15T07:40:10.699Z,5.85
2022-10-15T07:42:37.342Z,6.15
2022-10-15T07:45:04.369Z,6.65
2022-10-15T07:47:30.996Z,6.40
2022-10-15T07:49:57.420Z,8.95
2022-10-15T07:52:24.264Z,9.30
2022-10-15T07:54:51.046Z,7.05
2022-10-15T07:57:17.944Z,9.25
2022-10-15T07:59:44.622Z,10.93
2022-10-15T08:02:18.779Z,8.07
2022-10-15T08:04:45.481Z,8.50
2022-10-15T08:07:12.237Z,9.02
2022-10-15T08:09:38.966Z,7.60
2022-10-15T08:12:06.887Z,7.45
2022-10-15T08:14:35.055Z,9.85
2022-10-15T08:17:03.340Z,9.48
2022-10-15T08:19:30.037Z,10.57
2022-10-15T08:21:57.780Z,8.25
2022-10-15T08:24:24.527Z,9.98
2022-10-15T08:26:52.073Z,9.45
2022-10-15T08:29:18.497Z,9.75
2022-10-15T08:31:45.008Z,8.27
2022-10-15T08:34:11.428Z,9.20
2022-10-15T08:36:37.920Z,8.57
2022-10-15T08:39:07.172Z,9.70
2022-10-15T08:41:54.589Z,8.98
2022-10-15T08:44:28.562Z,9.52
2022-10-15T08:47:12.518Z,6.32
2022-10-15T08:49:47.023Z,7.97
2022-10-15T08:52:38.538Z,6.00
2022-10-15T08:55:05.325Z,6.57
2022-10-15T08:58:03.750Z,5.63
2022-10-15T09:00:44.401Z,6.40
2022-10-15T09:03:29.677Z,5.78
2022-10-15T09:06:29.122Z,5.38
2022-10-15T09:09:01.570Z,6.75
2022-10-15T09:12:02.685Z,5.40
2022-10-15T09:14:33.608Z,4.75
2022-10-15T09:17:22.302Z,4.38
2022-10-15T09:19:53.327Z,6.55
2022-10-15T09:22:25.534Z,6.47
2022-10-15T09:24:52.809Z,3.30
2022-10-15T09:27:27.756Z,4.72
2022-10-15T09:30:06.353Z,5.25
2022-10-15T09:32:43.437Z,3.40
2022-10-15T09:35:22.416Z,2.40
2022-10-15T09:38:03.515Z,3.90
2022-10-15T09:43:41.488Z,2.67
2022-10-15T09:46:09.376Z,2.25
2022-10-15T09:48:48.486Z,3.63
2022-10-15T09:51:34.457Z,1.52
2022-10-15T09:54:26.677Z,2.05
2022-10-15T09:56:55.751Z,1.63
2022-10-15T09:59:23.799Z,3.20
2022-10-15T10:02:15.333Z,2.35
2022-10-15T10:04:42.034Z,2.00
2022-10-15T10:07:09.134Z,1.58
2022-10-15T10:09:56.606Z,1.70
2022-10-15T10:12:31.195Z,2.50
2022-10-15T10:15:00.426Z,2.33
2022-10-15T10:17:30.168Z,1.70
2022-10-15T10:20:19.772Z,0.77
2022-10-15T10:22:55.669Z,1.27
2022-10-15T10:25:42.619Z,1.60
2022-10-15T10:28:11.560Z,2.15
2022-10-15T10:30:43.930Z,1.60
2022-10-15T10:33:15.101Z,1.33
2022-10-15T10:35:50.140Z,6.32
2022-10-15T10:38:29.490Z,1.05
2022-10-15T10:41:00.438Z,1.02
2022-10-15T10:43:29.181Z,1.33
2022-10-15T10:46:26.992Z,1.25
2022-10-15T10:48:54.409Z,2.28
2022-10-15T10:51:24.027Z,1.08
2022-10-15T10:54:06.222Z,2.30
2022-10-15T10:56:35.587Z,3.08
2022-10-15T10:59:24.209Z,5.50
2022-10-15T11:01:51.929Z,5.65
2022-10-15T11:04:31.482Z,3.03
2022-10-15T11:07:05.072Z,0.68
2022-10-15T11:09:44.448Z,1.58
2022-10-15T11:12:48.692Z,1.15
2022-10-15T11:15:31.018Z,2.67
2022-10-15T11:18:12.592Z,0.80
2022-10-15T11:21:00.727Z,3.17
2022-10-15T11:23:55.569Z,0.93
2022-10-15T11:26:24.952Z,1.98
2022-10-15T11:29:16.503Z,0.85
2022-10-15T11:32:17.213Z,1.33
2022-10-15T11:35:20.120Z,3.72
2022-10-15T11:38:11.928Z,1.90
2022-10-15T11:41:04.071Z,1.38
2022-10-15T11:43:55.365Z,0.82
2022-10-15T11:46:33.481Z,1.67
2022-10-15T11:49:05.652Z,0.85
2022-10-15T11:51:48.784Z,1.08
2022-10-15T11:54:42.216Z,0.88
2022-10-15T11:57:12.951Z,1.83
2022-10-15T11:59:59.608Z,1.10
2022-10-15T12:02:37.418Z,0.75
2022-10-15T12:05:31.572Z,0.80
2022-10-15T12:07:58.471Z,1.25
2022-10-15T12:10:54.519Z,1.17
2022-10-15T12:13:40.450Z,0.52
2022-10-15T12:16:33.980Z,0.80
2022-10-15T12:19:08.066Z,0.90
2022-10-15T12:21:57.892Z,1.67
2022-10-15T12:24:39.807Z,0.63
2022-10-15T12:27:35.516Z,0.52
2022-10-15T12:30:01.980Z,0.50
2022-10-15T12:32:38.612Z,0.80
2022-10-15T12:35:17.945Z,0.65
2022-10-15T12:37:48.111Z,2.40
2022-10-15T12:40:27.071Z,0.40
2022-10-15T12:42:59.477Z,1.30
2022-10-15T12:45:40.453Z,0.75
2022-10-15T12:48:19.922Z,0.47
2022-10-15T12:50:46.689Z,0.50
2022-10-15T12:53:34.399Z,0.40
2022-10-15T12:56:16.123Z,1.27
2022-10-15T12:58:44.510Z,0.47
2022-10-15T13:01:13.912Z,0.60
2022-10-15T13:03:52.480Z,0.70
2022-10-15T13:06:22.146Z,0.60
2022-10-15T13:08:48.689Z,0.45
2022-10-15T13:11:23.907Z,0.68
2022-10-15T13:14:03.601Z,5.05
2022-10-15T13:16:30.985Z,0.40
2022-10-15T13:18:59.020Z,0.60
2022-10-15T13:21:57.380Z,1.25
2022-10-15T13:24:27.087Z,0.93
2022-10-15T13:26:55.626Z,0.40
2022-10-15T13:29:27.736Z,0.70
2022-10-15T13:31:57.608Z,0.50
2022-10-15T13:34:25.670Z,0.85
2022-10-15T13:36:54.056Z,0.60
2022-10-15T13:39:27.026Z,0.50
2022-10-15T13:42:05.729Z,1.02
2022-10-15T13:44:32.277Z,1.02
2022-10-15T13:46:58.850Z,0.45
2022-10-15T13:49:28.069Z,2.72
2022-10-15T13:51:56.080Z,1.98
2022-10-15T13:54:24.451Z,2.45
2022-10-15T13:56:55.950Z,0.85
2022-10-15T13:59:24.111Z,1.95
2022-10-15T14:02:04.402Z,2.38
2022-10-15T14:04:33.013Z,0.60
2022-10-15T14:07:18.699Z,0.60
2022-10-15T14:09:46.916Z,1.13
2022-10-15T14:12:14.701Z,0.50
2022-10-15T14:14:46.553Z,0.65
2022-10-15T14:17:25.259Z,0.90
2022-10-15T14:20:25.331Z,0.50
2022-10-15T14:22:49.256Z,0.50
2022-10-15T14:25:23.635Z,0.65
2022-10-15T14:27:50.798Z,2.10
2022-10-15T14:30:34.234Z,0.75
2022-10-15T14:33:00.844Z,0.68
2022-10-15T14:35:29.848Z,1.80
2022-10-15T14:38:02.386Z,0.50
2022-10-15T14:40:29.334Z,2.20
2022-10-15T14:42:55.689Z,1.25
2022-10-15T14:45:28.425Z,3.08
2022-10-15T14:47:58.473Z,1.52
2022-10-15T14:50:29.375Z,0.82
2022-10-15T14:52:57.751Z,1.73
2022-10-15T14:55:24.330Z,2.70
2022-10-15T14:57:52.347Z,5.47
2022-10-15T15:00:46.840Z,3.47
2022-10-15T15:03:17.898Z,1.88
2022-10-15T15:05:46.068Z,3.35
2022-10-15T15:08:12.816Z,2.25
2022-10-15T15:10:39.929Z,2.30
2022-10-15T15:13:06.435Z,1.70
2022-10-15T15:15:33.059Z,2.08
2022-10-15T15:17:59.528Z,3.50
2022-10-15T15:20:26.127Z,1.42
2022-10-15T15:22:54.501Z,1.17
2022-10-15T15:25:29.462Z,3.28
2022-10-15T15:30:25.384Z,1.90
2022-10-15T15:32:52.246Z,1.33
2022-10-15T15:35:26.455Z,1.20
2022-10-15T15:37:53.206Z,0.93
2022-10-15T15:40:20.110Z,4.88
2022-10-15T15:42:47.088Z,1.60
2022-10-15T15:45:22.376Z,1.20
2022-10-15T15:47:49.451Z,1.60
2022-10-15T15:50:17.111Z,10.18
2022-10-15T15:52:43.792Z,19.55
2022-10-15T15:55:11.010Z,22.00
2022-10-15T15:57:37.600Z,2.47
2022-10-15T16:00:06.856Z,4.13
2022-10-15T16:02:33.575Z,1.77
2022-10-15T16:05:01.913Z,2.53
2022-10-15T16:07:29.596Z,1.25
2022-10-15T16:09:56.222Z,1.48
2022-10-15T16:12:23.020Z,4.38
2022-10-15T16:14:49.674Z,1.45
2022-10-15T16:17:16.301Z,1.25
2022-10-15T16:19:42.995Z,0.88
2022-10-15T16:22:09.585Z,2.65
2022-10-15T16:24:36.232Z,3.40
2022-10-15T16:27:02.705Z,1.42
2022-10-15T16:29:29.291Z,12.45
2022-10-15T16:31:55.696Z,1.42
2022-10-15T16:34:22.192Z,2.20
2022-10-15T16:36:48.776Z,1.20
2022-10-15T16:39:15.388Z,1.75
2022-10-15T16:41:41.826Z,4.47
2022-10-15T16:44:08.529Z,1.08
2022-10-15T16:46:35.029Z,1.40
2022-10-15T16:49:01.974Z,1.92
2022-10-15T16:51:28.620Z,0.65
2022-10-15T16:53:55.295Z,1.05
2022-10-15T16:56:24.356Z,4.05
2022-10-15T16:58:51.318Z,2.65
2022-10-15T17:01:24.476Z,1.73
2022-10-15T17:03:51.273Z,1.48
2022-10-15T17:06:21.157Z,3.08
2022-10-15T17:08:53.804Z,2.17
2022-10-15T17:11:31.020Z,1.13
2022-10-15T17:14:00.498Z,2.60
2022-10-15T17:16:29.356Z,2.88
2022-10-15T17:18:56.717Z,2.10
2022-10-15T17:21:27.043Z,3.17
2022-10-15T17:23:55.497Z,3.03
2022-10-15T17:26:24.018Z,2.13
2022-10-15T17:28:51.658Z,1.58
2022-10-15T17:31:21.941Z,1.98
2022-10-15T17:33:49.605Z,2.50
2022-10-15T17:36:19.135Z,2.10
2022-10-15T17:38:46.266Z,7.75
2022-10-15T17:41:19.406Z,1.70
2022-10-15T17:43:48.320Z,2.15
2022-10-15T17:46:20.111Z,2.25
2022-10-15T17:48:46.949Z,3.22
2022-10-15T17:51:15.615Z,3.08
2022-10-15T17:53:43.295Z,8.27
2022-10-15T17:56:12.845Z,10.75
2022-10-15T17:58:39.959Z,6.32
2022-10-15T18:01:06.880Z,3.63
2022-10-15T18:03:33.500Z,2.95
2022-10-15T18:06:09.906Z,4.45
2022-10-15T18:08:36.723Z,4.03
2022-10-15T18:11:04.217Z,5.70
2022-10-15T18:13:30.800Z,2.55
2022-10-15T18:15:57.716Z,5.97
2022-10-15T18:18:25.372Z,3.03
2022-10-15T18:20:52.576Z,4.40
2022-10-15T18:23:19.892Z,4.75
2022-10-15T18:25:47.145Z,25.40
2022-10-15T18:28:14.024Z,22.83
2022-10-15T18:30:42.936Z,7.18
2022-10-15T18:33:11.910Z,14.43
2022-10-15T18:35:39.963Z,5.65
2022-10-15T18:38:07.220Z,5.68
2022-10-15T18:40:40.087Z,4.45
2022-10-15T18:43:07.518Z,3.80
2022-10-15T18:45:35.905Z,3.50
2022-10-15T18:48:02.749Z,2.88
2022-10-15T18:50:29.348Z,2.35
2022-10-15T18:52:55.829Z,2.80
2022-10-15T18:55:22.508Z,2.95
2022-10-15T18:57:49.431Z,2.20
2022-10-15T19:00:16.264Z,2.13
2022-10-15T19:02:42.758Z,4.15
2022-10-15T19:05:09.510Z,3.28
2022-10-15T19:07:36.057Z,5.18
2022-10-15T19:10:02.873Z,2.30
2022-10-15T19:12:29.352Z,2.25
2022-10-15T19:14:55.924Z,3.28
2022-10-15T19:17:22.624Z,4.00
2022-10-15T19:19:50.819Z,2.50
2022-10-15T19:22:18.397Z,3.28
2022-10-15T19:24:46.068Z,5.32
2022-10-15T19:27:12.608Z,2.92
2022-10-15T19:29:39.312Z,9.98
2022-10-15T19:32:06.433Z,7.85
2022-10-15T19:34:35.213Z,7.88
2022-10-15T19:37:02.049Z,5.72
2022-10-15T19:39:29.014Z,6.00
2022-10-15T19:41:55.781Z,4.78
2022-10-15T19:44:26.060Z,3.42
2022-10-15T19:46:52.933Z,4.13
2022-10-15T19:49:19.677Z,5.28
2022-10-15T19:51:51.479Z,3.28
2022-10-15T19:54:18.144Z,5.43
2022-10-15T19:56:44.994Z,7.28
2022-10-15T19:59:11.966Z,8.02
2022-10-15T20:01:38.684Z,10.50
2022-10-15T20:04:07.007Z,6.53
2022-10-15T20:06:36.145Z,7.40
2022-10-15T20:09:03.116Z,10.05
2022-10-15T20:11:30.034Z,10.48
2022-10-15T20:13:58.545Z,12.43
2022-10-15T20:16:26.387Z,13.63
2022-10-15T20:18:56.536Z,9.93
2022-10-15T20:21:23.297Z,8.55
2022-10-15T20:23:51.012Z,7.80
2022-10-15T20:26:17.555Z,8.10
2022-10-15T20:28:45.440Z,8.48
2022-10-15T20:31:18.764Z,8.85
2022-10-15T20:33:45.198Z,14.38
2022-10-15T20:36:19.884Z,10.65
2022-10-15T20:38:49.164Z,17.08
2022-10-15T20:41:16.931Z,11.55
2022-10-15T20:43:45.033Z,11.98
2022-10-15T20:46:21.519Z,12.73
2022-10-15T20:48:48.362Z,9.65
2022-10-15T20:51:17.412Z,11.02
2022-10-15T20:53:45.425Z,7.97
2022-10-15T20:56:11.987Z,7.93
2022-10-15T20:58:38.545Z,6.47
2022-10-15T21:01:07.523Z,6.60
2022-10-15T21:03:34.367Z,5.38
2022-10-15T21:06:00.876Z,5.18
2022-10-15T21:08:27.511Z,5.20
2022-10-15T21:11:00.762Z,10.20
2022-10-15T21:13:27.317Z,7.90
2022-10-15T21:15:59.137Z,7.60
2022-10-15T21:18:26.914Z,11.00
2022-10-15T21:20:55.133Z,4.35
2022-10-15T21:23:21.951Z,5.00
2022-10-15T21:25:48.491Z,8.00
2022-10-15T21:28:15.170Z,4.97
2022-10-15T21:30:41.711Z,5.72
2022-10-15T21:33:08.103Z,4.28
2022-10-15T21:35:34.684Z,5.60
2022-10-15T21:38:01.337Z,8.18
2022-10-15T21:40:27.839Z,4.07
2022-10-15T21:42:54.252Z,5.65
2022-10-15T21:45:20.678Z,3.97
2022-10-15T21:47:47.125Z,3.70
2022-10-15T21:50:13.532Z,4.03
2022-10-15T21:52:40.618Z,3.67
2022-10-15T21:55:07.607Z,8.85
2022-10-15T21:57:34.507Z,5.05
2022-10-15T22:00:01.186Z,4.22
2022-10-15T22:02:27.613Z,4.50
2022-10-15T22:04:54.249Z,5.38
2022-10-15T22:07:20.789Z,4.68
2022-10-15T22:09:48.025Z,4.28
2022-10-15T22:12:15.630Z,5.70
2022-10-15T22:14:44.361Z,5.38
2022-10-15T22:17:10.780Z,4.78
2022-10-15T22:19:37.382Z,5.18
2022-10-15T22:22:03.778Z,11.32
2022-10-15T22:24:30.823Z,5.35
2022-10-15T22:26:57.248Z,4.63
2022-10-15T22:29:33.039Z,4.75
2022-10-15T22:32:01.329Z,4.00
2022-10-15T22:34:27.840Z,6.72
2022-10-15T22:36:54.199Z,5.43
2022-10-15T22:39:20.752Z,5.70
2022-10-15T22:41:48.364Z,5.10
2022-10-15T22:44:19.869Z,8.55
2022-10-15T22:46:49.070Z,4.43
2022-10-15T22:49:21.310Z,4.03
2022-10-15T22:51:51.363Z,13.40
2022-10-15T22:54:20.127Z,3.72
2022-10-15T22:56:47.134Z,6.03
2022-10-15T22:59:14.926Z,4.22
2022-10-15T23:01:41.697Z,3.72
2022-10-15T23:04:11.817Z,4.20
2022-10-15T23:06:38.271Z,4.13
2022-10-15T23:09:07.028Z,4.22
2022-10-15T23:11:39.078Z,4.43
2022-10-15T23:14:14.434Z,3.33
2022-10-15T23:16:43.324Z,3.45
2022-10-15T23:19:16.575Z,3.58
2022-10-15T23:21:51.648Z,3.72
2022-10-15T23:24:20.462Z,3.75
2022-10-15T23:26:48.898Z,6.35
2022-10-15T23:29:21.079Z,3.13
2022-10-15T23:31:49.105Z,3.92
2022-10-15T23:34:22.356Z,3.15
2022-10-15T23:36:49.873Z,8.98
2022-10-15T23:39:18.914Z,4.57
2022-10-15T23:41:45.731Z,4.47
2022-10-15T23:44:12.606Z,3.63
2022-10-15T23:46:39.557Z,4.25
2022-10-15T23:49:06.080Z,3.78
2022-10-15T23:51:34.640Z,3.20
2022-10-15T23:54:02.542Z,5.03
2022-10-15T23:56:30.070Z,5.30
2022-10-15T23:59:01.341Z,2.85
